Station info - map view · info · telemetry · weather · raw · status · beacons · messages · bulletins · browse · moving · my account
Callsign, ship name or locator: Clear       
It is possible to search using wildcards (*?) after a prefix. Example: OH*
AIS receiving station R3MAZ - show graphs
Map loading...
Callsign: r3maz
Destination: temperature=024°C,pressure=00722hPa
Location: 57°38.00' N 39°53.67' E - locator KO97WP71IX - show map - static map
0.8 miles East bearing 73° from Yaroslavl', Jaroslavl, Russia [?]
11.0 miles Northeast bearing 28° from Krasnyye Tkachi, Jaroslavl, Russia
59.5 miles Northwest bearing 318° from Ivanovo, Ivanovo, Russia
Last position: 2020-02-25 19:22:54 EST (2d 7h21m ago)
2020-02-26 03:22:54 MSK local time at Yaroslavl', Russia [?]
Altitude: 1234 ft
Course: 220°
Speed: 4 MPH
Positions stored: 13
Other SSIDs: R3MAZ-10 R3MAZ-11
Stations heard directly: 105 on radio path – show map
Stations near current position of R3MAZ - show more
callsign distance last heard - EST      callsign distance last heard - EST
r3maz1.3 miles 204°2020-02-15 11:11:30 SHLUZOVOY-942.2 miles 148°2020-02-25 19:20:54
RO3M2.9 miles 204°2020-02-28 02:30:13 URAL-204.0 miles 153°2020-02-25 19:19:52
EL-RM3MM4.3 miles 193°2020-02-28 02:44:25 EL-RM3M6.1 miles 284°2020-02-28 02:44:00
RT3M-16.1 miles 284°2020-02-28 02:30:22 RT3M-27.0 miles 65°2020-01-30 08:30:30
EL-RT3M7.2 miles 62°2020-02-27 21:55:50 EL-RC3M15.3 miles 304°2020-02-08 13:33:42
Stations heard directly by R3MAZ
callsign pkts first heard - EST last heard longest (rx => tx) longest at - EST
URAL-20 2585 2020-01-25 18:56:47 2020-02-25 19:16:48 KO97XN > KO97WP 4.0 miles 153° 2020-02-25 19:16:48
SHLUZOVOY-94 4746 2020-01-25 18:56:47 2020-02-25 19:20:54 KO97XO > KO97WP 2.5 miles 150° 2020-02-07 03:34:11
426355064 2 2020-02-21 04:40:24 2020-02-21 04:40:24 ID92PX > KO97WP 8227.4 miles 204° 2020-02-21 04:40:24
843693734 1 2020-02-21 08:01:02 2020-02-21 08:01:02 CL00RN > KO97WP 7027.5 miles 359° 2020-02-21 08:01:02
442432559 2 2020-02-21 12:28:02 2020-02-21 12:28:02 II98WV > KO97WP 4612.9 miles 224° 2020-02-21 12:28:02
864194219 2 2020-02-21 15:20:52 2020-02-21 15:20:52 ON54NB > KO97WP 3085.4 miles 75° 2020-02-21 15:20:52
582099312 2 2020-02-21 15:39:10 2020-02-21 15:39:10 HM11DF > KO97WP 3973.4 miles 278° 2020-02-21 15:39:10
161714856 4 2020-02-21 16:09:37 2020-02-21 16:09:37 QM01CP > KO97WP 4749.7 miles 64° 2020-02-21 16:09:37
603921356 AO 2 2020-02-21 18:15:13 2020-02-21 18:15:13 IR11JH > KO97WP 1967.1 miles 345° 2020-02-21 18:15:13
388176261 2 2020-02-21 19:31:35 2020-02-21 19:31:35 RD02UA > KO97WP 10355.9 miles 116° 2020-02-21 19:31:35
881693271 1 2020-02-21 21:15:17 2020-02-21 21:15:17 KH66FN > KO97WP 4924.7 miles 188° 2020-02-21 21:15:17
371042959 PA 1 2020-02-22 00:01:00 2020-02-22 00:01:00 EG06AV > KO97WP 9326.3 miles 303° 2020-02-22 00:01:00
454519078 2 2020-02-22 02:02:58 2020-02-22 02:02:58 HR57VQ > KO97WP 2180.1 miles 356° 2020-02-22 02:02:58
024838127 MT 2 2020-02-22 02:31:48 2020-02-22 02:31:48 BE15QP > KO97WP 11269.6 miles 45° 2020-02-22 02:31:48
113109918 4 2020-02-22 03:53:10 2020-02-22 03:53:10 IL93HX > KO97WP 3086.6 miles 239° 2020-02-22 03:53:10
826400334 2 2020-02-22 04:58:20 2020-02-22 04:58:20 DA69WX > KO97WP 10725.1 miles 193° 2020-02-22 04:58:20
291564915 1 2020-02-22 06:53:30 2020-02-22 06:53:30 QF48XL > KO97WP 8751.7 miles 92° 2020-02-22 06:53:30
460807103 2 2020-02-22 14:42:50 2020-02-22 14:42:50 BR20UI > KO97WP 2886.0 miles 4° 2020-02-22 14:42:50
570408437 TO 2 2020-02-22 15:34:40 2020-02-22 15:34:40 IB19GV > KO97WP 9259.3 miles 204° 2020-02-22 15:34:40
160299763 2 2020-02-22 16:29:41 2020-02-22 16:29:41 HH50AM > KO97WP 6640.1 miles 243° 2020-02-22 16:29:41
086728844 1 2020-02-25 15:02:10 2020-02-25 15:02:10 HG40KM > KO97WP 7271.2 miles 239° 2020-02-25 15:02:10

Only stations from which a position packet has been heard are shown here. The range statistics show some extra long hops, because some digipeaters do not correctly add themselves to the digipeater path. Please check the raw packets.
About this site
This page shows real-time information collected from the Automatic Position Reporting System Internet network (APRS-IS). APRS is used by amateur (ham) radio operators to transmit real-time position information, weather data, telemetry and messages over the radio. A vehicle equipped with a GPS receiver, a VHF transmitter or HF transceiver and a small computer device called a tracker transmits it's location, speed and course in a small data packet, which is then received by a nearby iGate receiving site which forwards the packet on the Internet. Systems connected to the Internet can send information on the APRS-IS without a radio transmitter, or collect and display information transmitted anywhere in the world.
User guide · FAQ · Blog · Discussion group · Linking to aprs.fi · AIS sites · Service status · Database statistics · Advertising on aprs.fi · Technical details · API · Change log · Planned changes · Credits and thanks · Terms Of Service · iPhone/iPad APRS